sensor_id;sensor_type;location;lat;lon;timestamp;temperature;humidity
57709;SHT35;42558;52.388;13.390;2023-07-13T00:02:25;16.47;72.79
57709;SHT35;42558;52.388;13.390;2023-07-13T00:04:56;16.45;72.84
57709;SHT35;42558;52.388;13.390;2023-07-13T00:07:26;16.42;73.10
57709;SHT35;42558;52.388;13.390;2023-07-13T00:09:56;16.38;73.37
57709;SHT35;42558;52.388;13.390;2023-07-13T00:15:07;16.25;73.61
57709;SHT35;42558;52.388;13.390;2023-07-13T00:17:45;16.22;73.88
57709;SHT35;42558;52.388;13.390;2023-07-13T00:20:16;16.22;73.97
57709;SHT35;42558;52.388;13.390;2023-07-13T00:22:46;16.21;73.96
57709;SHT35;42558;52.388;13.390;2023-07-13T00:25:17;16.19;74.27
57709;SHT35;42558;52.388;13.390;2023-07-13T00:27:47;16.15;74.67
57709;SHT35;42558;52.388;13.390;2023-07-13T00:30:18;16.16;74.69
57709;SHT35;42558;52.388;13.390;2023-07-13T00:32:48;16.17;74.57
57709;SHT35;42558;52.388;13.390;2023-07-13T00:35:27;16.16;74.58
57709;SHT35;42558;52.388;13.390;2023-07-13T00:38:00;16.15;74.57
57709;SHT35;42558;52.388;13.390;2023-07-13T00:40:30;16.12;74.90
57709;SHT35;42558;52.388;13.390;2023-07-13T00:43:00;16.09;75.02
57709;SHT35;42558;52.388;13.390;2023-07-13T00:48:00;16.06;74.76
57709;SHT35;42558;52.388;13.390;2023-07-13T00:50:30;16.05;74.94
57709;SHT35;42558;52.388;13.390;2023-07-13T00:53:00;16.01;75.29
57709;SHT35;42558;52.388;13.390;2023-07-13T00:55:32;15.98;75.37
57709;SHT35;42558;52.388;13.390;2023-07-13T00:58:02;15.95;75.35
57709;SHT35;42558;52.388;13.390;2023-07-13T01:00:34;15.91;75.47
57709;SHT35;42558;52.388;13.390;2023-07-13T01:03:07;15.85;75.76
57709;SHT35;42558;52.388;13.390;2023-07-13T01:05:38;15.81;75.97
57709;SHT35;42558;52.388;13.390;2023-07-13T01:08:06;15.75;76.09
57709;SHT35;42558;52.388;13.390;2023-07-13T01:10:38;15.70;76.33
57709;SHT35;42558;52.388;13.390;2023-07-13T01:13:07;15.67;76.50
57709;SHT35;42558;52.388;13.390;2023-07-13T01:15:41;15.67;76.60
57709;SHT35;42558;52.388;13.390;2023-07-13T01:18:16;15.66;76.48
57709;SHT35;42558;52.388;13.390;2023-07-13T01:20:56;15.66;76.30
57709;SHT35;42558;52.388;13.390;2023-07-13T01:23:29;15.62;76.48
57709;SHT35;42558;52.388;13.390;2023-07-13T01:26:01;15.57;76.55
57709;SHT35;42558;52.388;13.390;2023-07-13T01:28:31;15.56;76.45
57709;SHT35;42558;52.388;13.390;2023-07-13T01:31:06;15.55;76.49
57709;SHT35;42558;52.388;13.390;2023-07-13T01:33:39;15.51;76.61
57709;SHT35;42558;52.388;13.390;2023-07-13T01:36:10;15.49;76.56
57709;SHT35;42558;52.388;13.390;2023-07-13T01:38:41;15.46;76.72
57709;SHT35;42558;52.388;13.390;2023-07-13T01:41:13;15.44;77.00
57709;SHT35;42558;52.388;13.390;2023-07-13T01:43:43;15.42;77.06
57709;SHT35;42558;52.388;13.390;2023-07-13T01:46:13;15.40;77.12
57709;SHT35;42558;52.388;13.390;2023-07-13T01:48:52;15.40;77.62
57709;SHT35;42558;52.388;13.390;2023-07-13T01:51:22;15.37;77.89
57709;SHT35;42558;52.388;13.390;2023-07-13T01:53:52;15.38;78.19
57709;SHT35;42558;52.388;13.390;2023-07-13T01:56:22;15.36;78.11
57709;SHT35;42558;52.388;13.390;2023-07-13T01:58:52;15.37;78.12
57709;SHT35;42558;52.388;13.390;2023-07-13T02:01:22;15.38;78.02
57709;SHT35;42558;52.388;13.390;2023-07-13T02:03:51;15.37;77.97
57709;SHT35;42558;52.388;13.390;2023-07-13T02:06:22;15.35;78.00
57709;SHT35;42558;52.388;13.390;2023-07-13T02:08:52;15.27;78.02
57709;SHT35;42558;52.388;13.390;2023-07-13T02:11:22;15.21;78.05
57709;SHT35;42558;52.388;13.390;2023-07-13T02:13:52;15.16;78.04
57709;SHT35;42558;52.388;13.390;2023-07-13T02:16:22;15.09;78.09
57709;SHT35;42558;52.388;13.390;2023-07-13T02:18:52;15.05;78.00
57709;SHT35;42558;52.388;13.390;2023-07-13T02:21:22;14.95;78.29
57709;SHT35;42558;52.388;13.390;2023-07-13T02:23:53;14.88;78.63
57709;SHT35;42558;52.388;13.390;2023-07-13T02:26:21;14.86;78.71
57709;SHT35;42558;52.388;13.390;2023-07-13T02:28:50;14.86;79.00
57709;SHT35;42558;52.388;13.390;2023-07-13T02:31:18;14.86;79.22
57709;SHT35;42558;52.388;13.390;2023-07-13T02:33:46;14.85;79.19
57709;SHT35;42558;52.388;13.390;2023-07-13T02:36:17;14.82;79.21
57709;SHT35;42558;52.388;13.390;2023-07-13T02:38:49;14.79;79.35
57709;SHT35;42558;52.388;13.390;2023-07-13T02:41:19;14.78;79.40
57709;SHT35;42558;52.388;13.390;2023-07-13T02:43:48;14.76;79.38
57709;SHT35;42558;52.388;13.390;2023-07-13T02:46:18;14.75;79.44
57709;SHT35;42558;52.388;13.390;2023-07-13T02:48:47;14.74;79.53
57709;SHT35;42558;52.388;13.390;2023-07-13T02:51:17;14.72;79.80
57709;SHT35;42558;52.388;13.390;2023-07-13T02:53:45;14.69;79.88
57709;SHT35;42558;52.388;13.390;2023-07-13T02:56:14;14.66;79.79
57709;SHT35;42558;52.388;13.390;2023-07-13T02:58:46;14.63;79.94
57709;SHT35;42558;52.388;13.390;2023-07-13T03:01:16;14.59;80.11
57709;SHT35;42558;52.388;13.390;2023-07-13T03:03:50;14.54;80.15
57709;SHT35;42558;52.388;13.390;2023-07-13T03:06:22;14.51;80.31
57709;SHT35;42558;52.388;13.390;2023-07-13T03:08:50;14.49;80.25
57709;SHT35;42558;52.388;13.390;2023-07-13T03:11:19;14.47;80.17
57709;SHT35;42558;52.388;13.390;2023-07-13T03:13:47;14.42;80.31
57709;SHT35;42558;52.388;13.390;2023-07-13T03:16:17;14.37;80.49
57709;SHT35;42558;52.388;13.390;2023-07-13T03:18:46;14.35;80.80
57709;SHT35;42558;52.388;13.390;2023-07-13T03:21:15;14.36;81.10
57709;SHT35;42558;52.388;13.390;2023-07-13T03:23:43;14.38;81.21
57709;SHT35;42558;52.388;13.390;2023-07-13T03:26:15;14.40;81.28
57709;SHT35;42558;52.388;13.390;2023-07-13T03:28:49;14.43;81.30
57709;SHT35;42558;52.388;13.390;2023-07-13T03:31:20;14.46;81.31
57709;SHT35;42558;52.388;13.390;2023-07-13T03:33:55;14.48;81.13
57709;SHT35;42558;52.388;13.390;2023-07-13T03:36:26;14.51;81.34
57709;SHT35;42558;52.388;13.390;2023-07-13T03:38:57;14.55;81.30
57709;SHT35;42558;52.388;13.390;2023-07-13T03:41:28;14.59;81.30
57709;SHT35;42558;52.388;13.390;2023-07-13T03:44:00;14.60;81.38
57709;SHT35;42558;52.388;13.390;2023-07-13T03:46:28;14.64;81.41
57709;SHT35;42558;52.388;13.390;2023-07-13T03:48:59;14.69;81.25
57709;SHT35;42558;52.388;13.390;2023-07-13T03:51:28;14.71;81.33
57709;SHT35;42558;52.388;13.390;2023-07-13T03:53:58;14.76;81.37
57709;SHT35;42558;52.388;13.390;2023-07-13T03:56:27;14.82;81.22
57709;SHT35;42558;52.388;13.390;2023-07-13T03:58:57;14.88;81.08
57709;SHT35;42558;52.388;13.390;2023-07-13T04:01:27;14.94;80.84
57709;SHT35;42558;52.388;13.390;2023-07-13T04:03:57;15.02;80.46
57709;SHT35;42558;52.388;13.390;2023-07-13T04:06:30;15.06;80.21
57709;SHT35;42558;52.388;13.390;2023-07-13T04:09:02;15.11;80.34
57709;SHT35;42558;52.388;13.390;2023-07-13T04:11:33;15.15;80.29
57709;SHT35;42558;52.388;13.390;2023-07-13T04:14:01;15.18;80.32
57709;SHT35;42558;52.388;13.390;2023-07-13T04:16:30;15.23;79.94
57709;SHT35;42558;52.388;13.390;2023-07-13T04:19:00;15.29;79.78
57709;SHT35;42558;52.388;13.390;2023-07-13T04:21:30;15.35;79.75
57709;SHT35;42558;52.388;13.390;2023-07-13T04:24:00;15.41;79.76
57709;SHT35;42558;52.388;13.390;2023-07-13T04:26:29;15.48;79.47
57709;SHT35;42558;52.388;13.390;2023-07-13T04:28:59;15.56;79.26
57709;SHT35;42558;52.388;13.390;2023-07-13T04:31:29;15.65;79.12
57709;SHT35;42558;52.388;13.390;2023-07-13T04:34:00;15.73;78.85
57709;SHT35;42558;52.388;13.390;2023-07-13T04:36:30;15.78;78.65
57709;SHT35;42558;52.388;13.390;2023-07-13T04:39:00;15.84;78.53
57709;SHT35;42558;52.388;13.390;2023-07-13T04:41:30;15.93;78.68
57709;SHT35;42558;52.388;13.390;2023-07-13T04:44:00;15.99;78.67
57709;SHT35;42558;52.388;13.390;2023-07-13T04:46:31;16.07;78.49
57709;SHT35;42558;52.388;13.390;2023-07-13T04:49:01;16.16;78.20
57709;SHT35;42558;52.388;13.390;2023-07-13T04:51:32;16.27;77.94
57709;SHT35;42558;52.388;13.390;2023-07-13T04:54:01;16.38;77.69
57709;SHT35;42558;52.388;13.390;2023-07-13T04:56:29;16.47;77.36
57709;SHT35;42558;52.388;13.390;2023-07-13T04:59:00;16.57;77.33
57709;SHT35;42558;52.388;13.390;2023-07-13T05:01:30;16.69;77.03
57709;SHT35;42558;52.388;13.390;2023-07-13T05:04:00;16.84;76.64
57709;SHT35;42558;52.388;13.390;2023-07-13T05:06:30;17.03;76.39
57709;SHT35;42558;52.388;13.390;2023-07-13T05:09:00;17.19;75.75
57709;SHT35;42558;52.388;13.390;2023-07-13T05:11:30;17.33;75.33
57709;SHT35;42558;52.388;13.390;2023-07-13T05:14:00;17.50;75.09
57709;SHT35;42558;52.388;13.390;2023-07-13T05:16:30;17.55;74.83
57709;SHT35;42558;52.388;13.390;2023-07-13T05:19:01;17.64;75.33
57709;SHT35;42558;52.388;13.390;2023-07-13T05:21:31;17.82;75.10
57709;SHT35;42558;52.388;13.390;2023-07-13T05:24:01;17.96;74.37
57709;SHT35;42558;52.388;13.390;2023-07-13T05:26:45;18.09;73.97
57709;SHT35;42558;52.388;13.390;2023-07-13T05:29:15;18.20;73.53
57709;SHT35;42558;52.388;13.390;2023-07-13T05:31:44;18.35;73.15
57709;SHT35;42558;52.388;13.390;2023-07-13T05:34:14;18.60;72.16
57709;SHT35;42558;52.388;13.390;2023-07-13T05:36:44;18.85;71.31
57709;SHT35;42558;52.388;13.390;2023-07-13T05:39:14;19.06;70.45
57709;SHT35;42558;52.388;13.390;2023-07-13T05:41:44;19.29;70.07
57709;SHT35;42558;52.388;13.390;2023-07-13T05:44:14;19.45;69.29
57709;SHT35;42558;52.388;13.390;2023-07-13T05:46:43;19.54;68.05
57709;SHT35;42558;52.388;13.390;2023-07-13T05:49:13;19.69;67.22
57709;SHT35;42558;52.388;13.390;2023-07-13T05:51:43;19.97;66.95
57709;SHT35;42558;52.388;13.390;2023-07-13T05:54:12;20.22;66.10
57709;SHT35;42558;52.388;13.390;2023-07-13T05:56:42;20.38;65.52
57709;SHT35;42558;52.388;13.390;2023-07-13T05:59:12;20.32;64.38
57709;SHT35;42558;52.388;13.390;2023-07-13T06:01:42;20.28;63.81
57709;SHT35;42558;52.388;13.390;2023-07-13T06:04:12;20.44;63.07
57709;SHT35;42558;52.388;13.390;2023-07-13T06:06:42;20.58;62.42
57709;SHT35;42558;52.388;13.390;2023-07-13T06:09:12;20.67;61.99
57709;SHT35;42558;52.388;13.390;2023-07-13T06:11:42;20.80;62.05
57709;SHT35;42558;52.388;13.390;2023-07-13T06:14:12;21.11;61.34
57709;SHT35;42558;52.388;13.390;2023-07-13T06:16:42;21.47;60.88
57709;SHT35;42558;52.388;13.390;2023-07-13T06:19:13;21.79;59.73
57709;SHT35;42558;52.388;13.390;2023-07-13T06:21:42;21.82;59.10
57709;SHT35;42558;52.388;13.390;2023-07-13T06:24:13;21.86;58.71
57709;SHT35;42558;52.388;13.390;2023-07-13T06:26:42;21.93;57.41
57709;SHT35;42558;52.388;13.390;2023-07-13T06:29:12;21.94;56.85
57709;SHT35;42558;52.388;13.390;2023-07-13T06:31:42;22.10;56.95
57709;SHT35;42558;52.388;13.390;2023-07-13T06:34:12;22.21;56.63
57709;SHT35;42558;52.388;13.390;2023-07-13T06:36:39;22.20;56.43
57709;SHT35;42558;52.388;13.390;2023-07-13T06:39:10;22.36;55.76
57709;SHT35;42558;52.388;13.390;2023-07-13T06:41:37;22.49;56.02
57709;SHT35;42558;52.388;13.390;2023-07-13T06:44:07;22.52;55.47
57709;SHT35;42558;52.388;13.390;2023-07-13T06:46:37;22.63;55.37
57709;SHT35;42558;52.388;13.390;2023-07-13T06:49:08;22.85;53.92
57709;SHT35;42558;52.388;13.390;2023-07-13T06:51:38;22.87;54.09
57709;SHT35;42558;52.388;13.390;2023-07-13T06:54:06;22.98;54.16
57709;SHT35;42558;52.388;13.390;2023-07-13T06:56:35;23.23;54.13
57709;SHT35;42558;52.388;13.390;2023-07-13T06:59:03;23.39;54.04
57709;SHT35;42558;52.388;13.390;2023-07-13T07:01:32;23.72;53.97
57709;SHT35;42558;52.388;13.390;2023-07-13T07:04:00;23.79;53.57
57709;SHT35;42558;52.388;13.390;2023-07-13T07:06:29;23.64;53.04
57709;SHT35;42558;52.388;13.390;2023-07-13T07:08:57;23.52;53.80
57709;SHT35;42558;52.388;13.390;2023-07-13T07:11:26;23.79;53.39
57709;SHT35;42558;52.388;13.390;2023-07-13T07:13:54;24.00;53.20
57709;SHT35;42558;52.388;13.390;2023-07-13T07:16:24;23.79;53.14
57709;SHT35;42558;52.388;13.390;2023-07-13T07:18:54;23.69;54.36
57709;SHT35;42558;52.388;13.390;2023-07-13T07:21:22;24.10;53.73
57709;SHT35;42558;52.388;13.390;2023-07-13T07:23:51;24.22;52.87
57709;SHT35;42558;52.388;13.390;2023-07-13T07:26:22;24.48;52.99
57709;SHT35;42558;52.388;13.390;2023-07-13T07:28:55;24.65;52.19
57709;SHT35;42558;52.388;13.390;2023-07-13T07:31:25;24.89;52.80
57709;SHT35;42558;52.388;13.390;2023-07-13T07:33:55;25.12;51.18
57709;SHT35;42558;52.388;13.390;2023-07-13T07:36:25;25.58;49.62
57709;SHT35;42558;52.388;13.390;2023-07-13T07:38:55;25.13;49.57
57709;SHT35;42558;52.388;13.390;2023-07-13T07:41:22;24.89;50.63
57709;SHT35;42558;52.388;13.390;2023-07-13T07:43:55;25.35;50.05
57709;SHT35;42558;52.388;13.390;2023-07-13T07:46:22;25.68;49.63
57709;SHT35;42558;52.388;13.390;2023-07-13T07:48:52;25.69;49.93
57709;SHT35;42558;52.388;13.390;2023-07-13T07:51:22;25.64;50.18
57709;SHT35;42558;52.388;13.390;2023-07-13T07:53:52;25.23;50.73
57709;SHT35;42558;52.388;13.390;2023-07-13T07:56:21;25.70;51.04
57709;SHT35;42558;52.388;13.390;2023-07-13T07:58:52;26.57;49.58
57709;SHT35;42558;52.388;13.390;2023-07-13T08:01:22;26.25;47.75
57709;SHT35;42558;52.388;13.390;2023-07-13T08:03:52;26.12;49.21
57709;SHT35;42558;52.388;13.390;2023-07-13T08:06:23;25.77;48.74
57709;SHT35;42558;52.388;13.390;2023-07-13T08:08:56;25.17;50.23
57709;SHT35;42558;52.388;13.390;2023-07-13T08:11:23;25.04;50.85
57709;SHT35;42558;52.388;13.390;2023-07-13T08:13:54;24.51;51.62
57709;SHT35;42558;52.388;13.390;2023-07-13T08:16:24;24.11;52.37
57709;SHT35;42558;52.388;13.390;2023-07-13T08:18:55;23.89;53.12
57709;SHT35;42558;52.388;13.390;2023-07-13T08:21:25;23.92;53.95
57709;SHT35;42558;52.388;13.390;2023-07-13T08:23:55;24.08;53.34
57709;SHT35;42558;52.388;13.390;2023-07-13T08:26:25;24.06;53.09
57709;SHT35;42558;52.388;13.390;2023-07-13T08:28:55;23.99;53.37
57709;SHT35;42558;52.388;13.390;2023-07-13T08:31:25;24.13;52.43
57709;SHT35;42558;52.388;13.390;2023-07-13T08:33:55;24.09;52.69
57709;SHT35;42558;52.388;13.390;2023-07-13T08:36:25;24.04;52.94
57709;SHT35;42558;52.388;13.390;2023-07-13T08:38:56;24.07;52.50
57709;SHT35;42558;52.388;13.390;2023-07-13T08:41:26;24.12;52.21
57709;SHT35;42558;52.388;13.390;2023-07-13T08:43:57;24.31;51.63
57709;SHT35;42558;52.388;13.390;2023-07-13T08:46:36;24.65;51.41
57709;SHT35;42558;52.388;13.390;2023-07-13T08:49:16;25.01;51.05
57709;SHT35;42558;52.388;13.390;2023-07-13T08:51:53;25.23;50.17
57709;SHT35;42558;52.388;13.390;2023-07-13T08:54:42;25.82;49.60
57709;SHT35;42558;52.388;13.390;2023-07-13T08:57:30;25.85;49.10
57709;SHT35;42558;52.388;13.390;2023-07-13T09:00:01;25.53;48.67
57709;SHT35;42558;52.388;13.390;2023-07-13T09:02:43;25.41;49.37
57709;SHT35;42558;52.388;13.390;2023-07-13T09:05:26;25.83;48.22
57709;SHT35;42558;52.388;13.390;2023-07-13T09:12:12;26.12;46.79
57709;SHT35;42558;52.388;13.390;2023-07-13T09:14:37;25.97;46.20
57709;SHT35;42558;52.388;13.390;2023-07-13T09:17:12;25.73;46.82
57709;SHT35;42558;52.388;13.390;2023-07-13T09:19:50;26.09;44.85
57709;SHT35;42558;52.388;13.390;2023-07-13T09:22:33;26.06;43.31
57709;SHT35;42558;52.388;13.390;2023-07-13T09:25:10;25.87;43.32
57709;SHT35;42558;52.388;13.390;2023-07-13T09:28:11;25.28;45.29
57709;SHT35;42558;52.388;13.390;2023-07-13T09:30:56;24.91;46.80
57709;SHT35;42558;52.388;13.390;2023-07-13T09:33:58;24.43;47.28
57709;SHT35;42558;52.388;13.390;2023-07-13T09:36:30;24.25;47.67
57709;SHT35;42558;52.388;13.390;2023-07-13T09:44:27;23.95;48.11
57709;SHT35;42558;52.388;13.390;2023-07-13T09:47:18;23.98;48.11
57709;SHT35;42558;52.388;13.390;2023-07-13T09:50:01;23.86;48.69
57709;SHT35;42558;52.388;13.390;2023-07-13T09:52:43;23.56;49.43
57709;SHT35;42558;52.388;13.390;2023-07-13T09:58:02;23.71;50.39
57709;SHT35;42558;52.388;13.390;2023-07-13T10:00:55;24.24;50.55
57709;SHT35;42558;52.388;13.390;2023-07-13T10:03:33;24.63;48.55
57709;SHT35;42558;52.388;13.390;2023-07-13T10:06:16;25.22;48.36
57709;SHT35;42558;52.388;13.390;2023-07-13T10:08:49;25.41;47.11
57709;SHT35;42558;52.388;13.390;2023-07-13T10:11:22;24.74;46.95
57709;SHT35;42558;52.388;13.390;2023-07-13T10:14:02;24.14;49.32
57709;SHT35;42558;52.388;13.390;2023-07-13T10:16:43;23.76;50.23
57709;SHT35;42558;52.388;13.390;2023-07-13T10:19:21;23.46;50.85
57709;SHT35;42558;52.388;13.390;2023-07-13T10:21:58;23.59;50.40
57709;SHT35;42558;52.388;13.390;2023-07-13T10:24:44;23.65;49.54
57709;SHT35;42558;52.388;13.390;2023-07-13T10:27:18;23.55;49.13
57709;SHT35;42558;52.388;13.390;2023-07-13T10:30:09;23.88;48.80
57709;SHT35;42558;52.388;13.390;2023-07-13T10:33:10;24.75;47.65
57709;SHT35;42558;52.388;13.390;2023-07-13T10:35:43;25.40;46.62
57709;SHT35;42558;52.388;13.390;2023-07-13T10:38:20;25.43;46.11
57709;SHT35;42558;52.388;13.390;2023-07-13T10:40:57;25.15;45.87
57709;SHT35;42558;52.388;13.390;2023-07-13T10:43:34;24.62;46.45
57709;SHT35;42558;52.388;13.390;2023-07-13T10:46:12;24.47;47.20
57709;SHT35;42558;52.388;13.390;2023-07-13T10:48:48;24.51;48.44
57709;SHT35;42558;52.388;13.390;2023-07-13T10:51:23;24.80;47.92
57709;SHT35;42558;52.388;13.390;2023-07-13T10:56:45;24.50;47.03
57709;SHT35;42558;52.388;13.390;2023-07-13T11:02:08;24.54;47.08
57709;SHT35;42558;52.388;13.390;2023-07-13T11:05:20;25.24;45.00
57709;SHT35;42558;52.388;13.390;2023-07-13T11:08:50;25.40;44.79
57709;SHT35;42558;52.388;13.390;2023-07-13T11:19:16;25.23;42.66
57709;SHT35;42558;52.388;13.390;2023-07-13T11:25:00;25.44;43.67
57709;SHT35;42558;52.388;13.390;2023-07-13T11:27:50;25.81;41.85
57709;SHT35;42558;52.388;13.390;2023-07-13T11:33:20;25.33;40.52
57709;SHT35;42558;52.388;13.390;2023-07-13T11:35:57;25.33;41.13
57709;SHT35;42558;52.388;13.390;2023-07-13T11:38:36;25.36;41.64
57709;SHT35;42558;52.388;13.390;2023-07-13T11:41:17;25.98;40.99
57709;SHT35;42558;52.388;13.390;2023-07-13T11:44:01;26.23;39.90
57709;SHT35;42558;52.388;13.390;2023-07-13T11:46:45;25.80;40.31
57709;SHT35;42558;52.388;13.390;2023-07-13T11:49:26;25.86;40.51
57709;SHT35;42558;52.388;13.390;2023-07-13T11:52:01;25.93;40.90
57709;SHT35;42558;52.388;13.390;2023-07-13T11:54:31;25.94;40.80
57709;SHT35;42558;52.388;13.390;2023-07-13T11:57:29;25.87;41.25
57709;SHT35;42558;52.388;13.390;2023-07-13T12:00:05;26.18;42.08
57709;SHT35;42558;52.388;13.390;2023-07-13T12:02:51;26.24;41.56
57709;SHT35;42558;52.388;13.390;2023-07-13T12:05:24;26.28;41.72
57709;SHT35;42558;52.388;13.390;2023-07-13T12:07:54;26.04;40.58
57709;SHT35;42558;52.388;13.390;2023-07-13T12:10:26;26.16;41.10
57709;SHT35;42558;52.388;13.390;2023-07-13T12:13:03;26.51;40.31
57709;SHT35;42558;52.388;13.390;2023-07-13T12:15:37;26.27;39.46
57709;SHT35;42558;52.388;13.390;2023-07-13T12:18:14;26.26;40.60
57709;SHT35;42558;52.388;13.390;2023-07-13T12:20:48;26.30;38.56
57709;SHT35;42558;52.388;13.390;2023-07-13T12:23:28;25.79;38.73
57709;SHT35;42558;52.388;13.390;2023-07-13T12:26:05;25.55;40.29
57709;SHT35;42558;52.388;13.390;2023-07-13T12:28:44;25.77;39.21
57709;SHT35;42558;52.388;13.390;2023-07-13T12:31:26;26.06;39.26
57709;SHT35;42558;52.388;13.390;2023-07-13T12:34:07;26.17;39.77
57709;SHT35;42558;52.388;13.390;2023-07-13T12:39:25;26.19;41.10
57709;SHT35;42558;52.388;13.390;2023-07-13T12:42:17;26.14;40.69
57709;SHT35;42558;52.388;13.390;2023-07-13T12:44:57;26.15;41.11
57709;SHT35;42558;52.388;13.390;2023-07-13T12:47:42;26.26;40.84
57709;SHT35;42558;52.388;13.390;2023-07-13T12:50:23;26.30;40.05
57709;SHT35;42558;52.388;13.390;2023-07-13T12:53:01;26.15;40.56
57709;SHT35;42558;52.388;13.390;2023-07-13T12:55:40;26.13;40.86
57709;SHT35;42558;52.388;13.390;2023-07-13T12:58:41;25.45;40.40
57709;SHT35;42558;52.388;13.390;2023-07-13T13:01:13;25.37;41.06
57709;SHT35;42558;52.388;13.390;2023-07-13T13:03:46;25.49;40.05
57709;SHT35;42558;52.388;13.390;2023-07-13T13:06:24;25.78;40.42
57709;SHT35;42558;52.388;13.390;2023-07-13T13:08:58;26.09;40.46
57709;SHT35;42558;52.388;13.390;2023-07-13T13:11:30;26.21;40.01
57709;SHT35;42558;52.388;13.390;2023-07-13T13:14:01;26.20;40.34
57709;SHT35;42558;52.388;13.390;2023-07-13T13:16:32;26.03;40.03
57709;SHT35;42558;52.388;13.390;2023-07-13T13:19:25;25.48;40.24
57709;SHT35;42558;52.388;13.390;2023-07-13T13:21:56;25.51;41.23
57709;SHT35;42558;52.388;13.390;2023-07-13T13:24:26;25.61;41.22
57709;SHT35;42558;52.388;13.390;2023-07-13T13:26:56;25.68;41.63
57709;SHT35;42558;52.388;13.390;2023-07-13T13:29:24;25.79;41.13
57709;SHT35;42558;52.388;13.390;2023-07-13T13:31:53;25.85;41.52
57709;SHT35;42558;52.388;13.390;2023-07-13T13:34:24;26.03;41.04
57709;SHT35;42558;52.388;13.390;2023-07-13T13:36:53;26.10;40.53
57709;SHT35;42558;52.388;13.390;2023-07-13T13:39:33;25.91;40.69
57709;SHT35;42558;52.388;13.390;2023-07-13T13:42:08;26.36;40.88
57709;SHT35;42558;52.388;13.390;2023-07-13T13:44:38;26.43;39.85
57709;SHT35;42558;52.388;13.390;2023-07-13T13:47:27;26.43;39.79
57709;SHT35;42558;52.388;13.390;2023-07-13T13:50:12;26.36;40.21
57709;SHT35;42558;52.388;13.390;2023-07-13T13:52:45;26.39;38.73
57709;SHT35;42558;52.388;13.390;2023-07-13T13:55:17;26.44;37.94
57709;SHT35;42558;52.388;13.390;2023-07-13T13:57:49;26.40;38.09
57709;SHT35;42558;52.388;13.390;2023-07-13T14:00:20;26.53;37.69
57709;SHT35;42558;52.388;13.390;2023-07-13T14:02:50;26.03;37.98
57709;SHT35;42558;52.388;13.390;2023-07-13T14:05:22;25.53;39.45
57709;SHT35;42558;52.388;13.390;2023-07-13T14:07:55;25.25;41.19
57709;SHT35;42558;52.388;13.390;2023-07-13T14:10:26;25.20;41.73
57709;SHT35;42558;52.388;13.390;2023-07-13T14:12:57;25.53;41.05
57709;SHT35;42558;52.388;13.390;2023-07-13T14:15:28;25.97;41.35
57709;SHT35;42558;52.388;13.390;2023-07-13T14:17:57;26.43;39.98
57709;SHT35;42558;52.388;13.390;2023-07-13T14:20:26;26.20;39.76
57709;SHT35;42558;52.388;13.390;2023-07-13T14:22:54;26.09;40.44
57709;SHT35;42558;52.388;13.390;2023-07-13T14:25:22;25.70;40.57
57709;SHT35;42558;52.388;13.390;2023-07-13T14:27:56;25.44;41.21
57709;SHT35;42558;52.388;13.390;2023-07-13T14:30:27;25.76;40.59
57709;SHT35;42558;52.388;13.390;2023-07-13T14:32:57;25.90;39.70
57709;SHT35;42558;52.388;13.390;2023-07-13T14:35:26;25.79;40.02
57709;SHT35;42558;52.388;13.390;2023-07-13T14:37:56;25.31;41.28
57709;SHT35;42558;52.388;13.390;2023-07-13T14:40:29;25.22;41.55
57709;SHT35;42558;52.388;13.390;2023-07-13T14:43:00;25.62;41.24
57709;SHT35;42558;52.388;13.390;2023-07-13T14:45:29;25.84;40.82
57709;SHT35;42558;52.388;13.390;2023-07-13T14:48:01;25.81;40.89
57709;SHT35;42558;52.388;13.390;2023-07-13T14:50:31;26.06;41.04
57709;SHT35;42558;52.388;13.390;2023-07-13T14:53:02;26.30;40.25
57709;SHT35;42558;52.388;13.390;2023-07-13T14:55:32;26.36;40.38
57709;SHT35;42558;52.388;13.390;2023-07-13T14:58:02;26.59;40.16
57709;SHT35;42558;52.388;13.390;2023-07-13T15:00:32;26.68;39.15
57709;SHT35;42558;52.388;13.390;2023-07-13T15:03:02;26.91;38.79
57709;SHT35;42558;52.388;13.390;2023-07-13T15:05:34;26.68;38.05
57709;SHT35;42558;52.388;13.390;2023-07-13T15:08:04;26.68;38.24
57709;SHT35;42558;52.388;13.390;2023-07-13T15:10:34;26.78;37.82
57709;SHT35;42558;52.388;13.390;2023-07-13T15:13:14;26.84;37.82
57709;SHT35;42558;52.388;13.390;2023-07-13T15:15:48;26.82;37.34
57709;SHT35;42558;52.388;13.390;2023-07-13T15:18:22;26.60;36.87
57709;SHT35;42558;52.388;13.390;2023-07-13T15:20:54;26.53;37.31
57709;SHT35;42558;52.388;13.390;2023-07-13T15:23:24;26.45;37.20
57709;SHT35;42558;52.388;13.390;2023-07-13T15:25:55;26.46;37.44
57709;SHT35;42558;52.388;13.390;2023-07-13T15:28:22;26.57;36.77
57709;SHT35;42558;52.388;13.390;2023-07-13T15:30:52;26.50;37.12
57709;SHT35;42558;52.388;13.390;2023-07-13T15:33:24;26.44;37.84
57709;SHT35;42558;52.388;13.390;2023-07-13T15:35:57;26.42;38.11
57709;SHT35;42558;52.388;13.390;2023-07-13T15:38:28;26.70;37.57
57709;SHT35;42558;52.388;13.390;2023-07-13T15:41:00;26.95;37.46
57709;SHT35;42558;52.388;13.390;2023-07-13T15:47:55;26.56;36.22
57709;SHT35;42558;52.388;13.390;2023-07-13T15:50:25;26.35;37.12
57709;SHT35;42558;52.388;13.390;2023-07-13T15:52:55;26.64;37.15
57709;SHT35;42558;52.388;13.390;2023-07-13T15:55:28;26.63;36.70
57709;SHT35;42558;52.388;13.390;2023-07-13T15:58:08;26.49;36.82
57709;SHT35;42558;52.388;13.390;2023-07-13T16:00:42;26.81;37.68
57709;SHT35;42558;52.388;13.390;2023-07-13T16:03:14;26.97;36.77
57709;SHT35;42558;52.388;13.390;2023-07-13T16:05:44;26.50;36.18
57709;SHT35;42558;52.388;13.390;2023-07-13T16:08:19;26.23;36.92
57709;SHT35;42558;52.388;13.390;2023-07-13T16:10:58;26.15;36.20
57709;SHT35;42558;52.388;13.390;2023-07-13T16:13:30;26.26;36.54
57709;SHT35;42558;52.388;13.390;2023-07-13T16:16:00;26.38;35.81
57709;SHT35;42558;52.388;13.390;2023-07-13T16:18:30;26.35;36.26
57709;SHT35;42558;52.388;13.390;2023-07-13T16:21:00;26.39;36.52
57709;SHT35;42558;52.388;13.390;2023-07-13T16:23:30;26.29;36.63
57709;SHT35;42558;52.388;13.390;2023-07-13T16:26:02;26.27;36.43
57709;SHT35;42558;52.388;13.390;2023-07-13T16:28:33;26.39;36.39
57709;SHT35;42558;52.388;13.390;2023-07-13T16:31:04;26.52;35.82
57709;SHT35;42558;52.388;13.390;2023-07-13T16:33:35;26.47;35.81
57709;SHT35;42558;52.388;13.390;2023-07-13T16:36:08;26.19;35.97